sensor_id;sensor_type;location;lat;lon;timestamp;temperature;humidity
1123;DHT22;548;48.778;9.252;2022-10-12T03:08:05;12.40;99.90
1123;DHT22;548;48.778;9.252;2022-10-12T03:10:31;12.50;99.90
1123;DHT22;548;48.778;9.252;2022-10-12T03:12:58;12.60;99.90
1123;DHT22;548;48.778;9.252;2022-10-12T03:15:25;12.60;99.90
1123;DHT22;548;48.778;9.252;2022-10-12T03:17:51;12.60;99.90
1123;DHT22;548;48.778;9.252;2022-10-12T03:20:18;12.70;99.90
1123;DHT22;548;48.778;9.252;2022-10-12T03:22:45;12.70;99.90
1123;DHT22;548;48.778;9.252;2022-10-12T03:25:14;12.70;99.90
1123;DHT22;548;48.778;9.252;2022-10-12T03:27:40;12.70;99.90
1123;DHT22;548;48.778;9.252;2022-10-12T03:30:09;12.70;99.90
1123;DHT22;548;48.778;9.252;2022-10-12T03:32:36;12.80;99.90
1123;DHT22;548;48.778;9.252;2022-10-12T03:35:03;12.70;99.90
1123;DHT22;548;48.778;9.252;2022-10-12T03:37:30;12.70;99.90
1123;DHT22;548;48.778;9.252;2022-10-12T03:39:57;12.80;99.90
1123;DHT22;548;48.778;9.252;2022-10-12T03:42:25;12.90;99.90
1123;DHT22;548;48.778;9.252;2022-10-12T03:44:51;12.90;99.90
1123;DHT22;548;48.778;9.252;2022-10-12T03:47:18;12.90;99.90
1123;DHT22;548;48.778;9.252;2022-10-12T03:49:45;12.90;99.90
1123;DHT22;548;48.778;9.252;2022-10-12T03:52:11;12.90;99.90
1123;DHT22;548;48.778;9.252;2022-10-12T03:54:38;12.90;99.90
1123;DHT22;548;48.778;9.252;2022-10-12T03:57:05;12.70;99.90
1123;DHT22;548;48.778;9.252;2022-10-12T03:59:33;12.70;99.90
1123;DHT22;548;48.778;9.252;2022-10-12T04:02:00;12.70;99.90
1123;DHT22;548;48.778;9.252;2022-10-12T04:04:26;12.80;99.90
1123;DHT22;548;48.778;9.252;2022-10-12T04:06:53;12.80;99.90
1123;DHT22;548;48.778;9.252;2022-10-12T04:09:20;12.80;99.90
1123;DHT22;548;48.778;9.252;2022-10-12T04:11:46;12.70;99.90
1123;DHT22;548;48.778;9.252;2022-10-12T04:14:13;12.70;99.90
1123;DHT22;548;48.778;9.252;2022-10-12T04:16:41;12.70;99.90
1123;DHT22;548;48.778;9.252;2022-10-12T04:19:10;12.80;99.90
1123;DHT22;548;48.778;9.252;2022-10-12T04:21:37;12.70;99.90
1123;DHT22;548;48.778;9.252;2022-10-12T04:24:05;12.80;99.90
1123;DHT22;548;48.778;9.252;2022-10-12T04:26:31;12.80;99.90
1123;DHT22;548;48.778;9.252;2022-10-12T04:30:40;12.80;99.90
1123;DHT22;548;48.778;9.252;2022-10-12T04:32:31;12.80;99.90
1123;DHT22;548;48.778;9.252;2022-10-12T04:34:58;12.80;99.90
1123;DHT22;548;48.778;9.252;2022-10-12T04:37:25;12.90;99.90
1123;DHT22;548;48.778;9.252;2022-10-12T04:39:52;12.90;99.90
1123;DHT22;548;48.778;9.252;2022-10-12T04:42:19;13.00;99.90
1123;DHT22;548;48.778;9.252;2022-10-12T04:44:46;13.00;99.90
1123;DHT22;548;48.778;9.252;2022-10-12T04:47:13;13.10;99.90
1123;DHT22;548;48.778;9.252;2022-10-12T04:49:41;13.20;99.90
1123;DHT22;548;48.778;9.252;2022-10-12T04:52:07;13.20;99.90
1123;DHT22;548;48.778;9.252;2022-10-12T04:54:34;13.30;99.90
1123;DHT22;548;48.778;9.252;2022-10-12T04:57:01;13.40;99.90
1123;DHT22;548;48.778;9.252;2022-10-12T04:59:28;13.50;99.90
1123;DHT22;548;48.778;9.252;2022-10-12T05:01:54;13.60;99.90
1123;DHT22;548;48.778;9.252;2022-10-12T05:04:21;13.80;99.90
1123;DHT22;548;48.778;9.252;2022-10-12T05:06:49;13.80;99.90
1123;DHT22;548;48.778;9.252;2022-10-12T05:09:16;13.90;99.90
1123;DHT22;548;48.778;9.252;2022-10-12T05:11:43;14.00;99.90
1123;DHT22;548;48.778;9.252;2022-10-12T05:14:10;14.10;99.90
1123;DHT22;548;48.778;9.252;2022-10-12T05:16:36;14.10;99.90
1123;DHT22;548;48.778;9.252;2022-10-12T05:19:03;14.10;99.90
1123;DHT22;548;48.778;9.252;2022-10-12T05:21:30;14.20;99.90
1123;DHT22;548;48.778;9.252;2022-10-12T05:23:58;14.20;99.90
1123;DHT22;548;48.778;9.252;2022-10-12T05:26:24;14.20;99.90
1123;DHT22;548;48.778;9.252;2022-10-12T05:28:51;14.10;99.90
1123;DHT22;548;48.778;9.252;2022-10-12T05:31:18;14.00;99.90
1123;DHT22;548;48.778;9.252;2022-10-12T05:33:45;14.00;99.90
1123;DHT22;548;48.778;9.252;2022-10-12T05:36:12;13.90;99.90
1123;DHT22;548;48.778;9.252;2022-10-12T05:38:38;14.00;99.90
1123;DHT22;548;48.778;9.252;2022-10-12T05:41:06;13.90;99.90
1123;DHT22;548;48.778;9.252;2022-10-12T05:43:33;13.90;99.90
1123;DHT22;548;48.778;9.252;2022-10-12T05:46:00;13.80;99.90
1123;DHT22;548;48.778;9.252;2022-10-12T05:48:27;13.80;99.90
1123;DHT22;548;48.778;9.252;2022-10-12T05:50:53;13.80;99.90
1123;DHT22;548;48.778;9.252;2022-10-12T05:53:21;13.70;99.90
1123;DHT22;548;48.778;9.252;2022-10-12T05:55:52;13.80;99.90
1123;DHT22;548;48.778;9.252;2022-10-12T05:58:20;13.70;99.90
1123;DHT22;548;48.778;9.252;2022-10-12T06:00:47;13.70;99.90
1123;DHT22;548;48.778;9.252;2022-10-12T06:03:13;13.70;99.90
1123;DHT22;548;48.778;9.252;2022-10-12T06:05:40;13.70;99.90
1123;DHT22;548;48.778;9.252;2022-10-12T06:08:07;13.70;99.90
1123;DHT22;548;48.778;9.252;2022-10-12T06:10:34;13.80;99.90
1123;DHT22;548;48.778;9.252;2022-10-12T06:13:01;13.80;99.90
1123;DHT22;548;48.778;9.252;2022-10-12T06:15:29;13.80;99.90
1123;DHT22;548;48.778;9.252;2022-10-12T06:17:56;14.00;99.90
1123;DHT22;548;48.778;9.252;2022-10-12T06:20:22;14.00;99.90
1123;DHT22;548;48.778;9.252;2022-10-12T06:22:49;14.00;99.90
1123;DHT22;548;48.778;9.252;2022-10-12T06:25:16;14.10;99.90
1123;DHT22;548;48.778;9.252;2022-10-12T06:27:43;14.20;99.90
1123;DHT22;548;48.778;9.252;2022-10-12T06:30:11;14.10;99.90
1123;DHT22;548;48.778;9.252;2022-10-12T06:32:39;14.20;99.90
1123;DHT22;548;48.778;9.252;2022-10-12T06:35:07;14.20;99.90
1123;DHT22;548;48.778;9.252;2022-10-12T06:37:34;14.20;99.90
1123;DHT22;548;48.778;9.252;2022-10-12T06:40:00;14.10;99.90
1123;DHT22;548;48.778;9.252;2022-10-12T06:42:27;14.10;99.90
1123;DHT22;548;48.778;9.252;2022-10-12T06:44:54;14.30;99.90
1123;DHT22;548;48.778;9.252;2022-10-12T06:47:21;14.30;99.90
1123;DHT22;548;48.778;9.252;2022-10-12T06:49:49;14.30;99.90
1123;DHT22;548;48.778;9.252;2022-10-12T06:52:15;14.50;99.90
1123;DHT22;548;48.778;9.252;2022-10-12T06:54:42;14.60;99.90
1123;DHT22;548;48.778;9.252;2022-10-12T06:57:09;14.60;99.90
1123;DHT22;548;48.778;9.252;2022-10-12T06:59:36;14.70;99.90
1123;DHT22;548;48.778;9.252;2022-10-12T07:02:03;14.80;99.90
1123;DHT22;548;48.778;9.252;2022-10-12T07:04:29;14.80;99.90
1123;DHT22;548;48.778;9.252;2022-10-12T07:06:57;14.80;99.90
1123;DHT22;548;48.778;9.252;2022-10-12T07:09:24;14.90;99.90
1123;DHT22;548;48.778;9.252;2022-10-12T07:11:51;14.90;99.90
1123;DHT22;548;48.778;9.252;2022-10-12T07:14:17;15.00;99.90
1123;DHT22;548;48.778;9.252;2022-10-12T07:16:44;15.10;99.90
1123;DHT22;548;48.778;9.252;2022-10-12T07:19:11;15.20;99.90
1123;DHT22;548;48.778;9.252;2022-10-12T07:21:38;15.40;99.90
1123;DHT22;548;48.778;9.252;2022-10-12T07:24:08;15.60;99.90
1123;DHT22;548;48.778;9.252;2022-10-12T07:26:36;15.60;99.90
1123;DHT22;548;48.778;9.252;2022-10-12T07:29:03;15.80;99.90
1123;DHT22;548;48.778;9.252;2022-10-12T07:31:30;16.00;99.90
1123;DHT22;548;48.778;9.252;2022-10-12T07:33:56;16.20;99.90
1123;DHT22;548;48.778;9.252;2022-10-12T07:36:23;16.20;99.90
1123;DHT22;548;48.778;9.252;2022-10-12T07:38:50;16.30;99.90
1123;DHT22;548;48.778;9.252;2022-10-12T07:41:18;16.50;99.90
1123;DHT22;548;48.778;9.252;2022-10-12T07:43:45;16.80;99.90
1123;DHT22;548;48.778;9.252;2022-10-12T07:46:12;17.00;99.90
1123;DHT22;548;48.778;9.252;2022-10-12T07:48:39;17.00;99.90
1123;DHT22;548;48.778;9.252;2022-10-12T07:51:08;16.70;99.90
1123;DHT22;548;48.778;9.252;2022-10-12T07:53:35;16.70;99.90
1123;DHT22;548;48.778;9.252;2022-10-12T07:56:04;16.80;99.90
1123;DHT22;548;48.778;9.252;2022-10-12T07:58:33;16.70;99.90
1123;DHT22;548;48.778;9.252;2022-10-12T08:01:03;16.90;99.90
1123;DHT22;548;48.778;9.252;2022-10-12T08:03:30;17.00;99.90
1123;DHT22;548;48.778;9.252;2022-10-12T08:05:57;17.00;99.90
1123;DHT22;548;48.778;9.252;2022-10-12T08:08:24;17.00;99.90
1123;DHT22;548;48.778;9.252;2022-10-12T08:10:50;16.90;99.90
1123;DHT22;548;48.778;9.252;2022-10-12T08:13:17;16.80;99.90
1123;DHT22;548;48.778;9.252;2022-10-12T08:15:48;16.80;99.90
1123;DHT22;548;48.778;9.252;2022-10-12T08:18:15;16.90;99.90
1123;DHT22;548;48.778;9.252;2022-10-12T08:20:42;17.00;99.90
1123;DHT22;548;48.778;9.252;2022-10-12T08:23:09;17.20;99.90
1123;DHT22;548;48.778;9.252;2022-10-12T08:25:35;17.20;99.90
1123;DHT22;548;48.778;9.252;2022-10-12T08:28:02;17.40;99.90
1123;DHT22;548;48.778;9.252;2022-10-12T08:30:29;17.40;99.90
1123;DHT22;548;48.778;9.252;2022-10-12T08:32:57;17.50;99.90
1123;DHT22;548;48.778;9.252;2022-10-12T08:35:24;17.90;99.90
1123;DHT22;548;48.778;9.252;2022-10-12T08:37:51;17.90;99.90
1123;DHT22;548;48.778;9.252;2022-10-12T08:40:22;18.00;99.90
1123;DHT22;548;48.778;9.252;2022-10-12T08:42:54;18.30;99.90
1123;DHT22;548;48.778;9.252;2022-10-12T08:45:29;18.50;99.90
1123;DHT22;548;48.778;9.252;2022-10-12T08:48:06;18.30;99.90
1123;DHT22;548;48.778;9.252;2022-10-12T08:50:37;18.30;99.90
1123;DHT22;548;48.778;9.252;2022-10-12T08:53:12;18.20;99.90
1123;DHT22;548;48.778;9.252;2022-10-12T08:55:42;18.10;99.90
1123;DHT22;548;48.778;9.252;2022-10-12T08:58:14;18.20;99.90
1123;DHT22;548;48.778;9.252;2022-10-12T09:00:42;18.60;99.90
1123;DHT22;548;48.778;9.252;2022-10-12T09:03:22;18.70;99.90
1123;DHT22;548;48.778;9.252;2022-10-12T09:05:56;18.70;99.90
1123;DHT22;548;48.778;9.252;2022-10-12T09:08:31;18.90;99.90
1123;DHT22;548;48.778;9.252;2022-10-12T09:11:16;18.60;99.90
1123;DHT22;548;48.778;9.252;2022-10-12T09:13:54;18.40;99.90
1123;DHT22;548;48.778;9.252;2022-10-12T09:16:26;18.40;99.90
1123;DHT22;548;48.778;9.252;2022-10-12T09:18:58;18.20;99.90
1123;DHT22;548;48.778;9.252;2022-10-12T09:21:28;18.30;99.90
1123;DHT22;548;48.778;9.252;2022-10-12T09:23:57;18.30;99.90
1123;DHT22;548;48.778;9.252;2022-10-12T09:26:32;18.50;99.90
1123;DHT22;548;48.778;9.252;2022-10-12T09:29:00;18.70;99.90
1123;DHT22;548;48.778;9.252;2022-10-12T09:31:42;18.50;99.90
1123;DHT22;548;48.778;9.252;2022-10-12T09:34:12;18.50;99.90
1123;DHT22;548;48.778;9.252;2022-10-12T09:36:40;18.40;99.90
1123;DHT22;548;48.778;9.252;2022-10-12T09:39:12;18.20;99.90
1123;DHT22;548;48.778;9.252;2022-10-12T09:41:43;18.20;99.90
1123;DHT22;548;48.778;9.252;2022-10-12T09:44:14;18.20;99.90
1123;DHT22;548;48.778;9.252;2022-10-12T09:46:45;18.30;99.90
1123;DHT22;548;48.778;9.252;2022-10-12T09:49:15;18.40;99.90
1123;DHT22;548;48.778;9.252;2022-10-12T09:51:42;18.60;99.90
1123;DHT22;548;48.778;9.252;2022-10-12T09:54:15;18.60;99.90
1123;DHT22;548;48.778;9.252;2022-10-12T09:56:47;18.50;99.90
1123;DHT22;548;48.778;9.252;2022-10-12T09:59:25;18.60;99.90
1123;DHT22;548;48.778;9.252;2022-10-12T10:02:03;18.40;99.90
1123;DHT22;548;48.778;9.252;2022-10-12T10:04:39;18.30;99.90
1123;DHT22;548;48.778;9.252;2022-10-12T10:07:28;18.30;99.90
1123;DHT22;548;48.778;9.252;2022-10-12T10:10:06;18.20;99.90
1123;DHT22;548;48.778;9.252;2022-10-12T10:12:43;18.20;99.90
1123;DHT22;548;48.778;9.252;2022-10-12T10:15:19;18.40;99.90
1123;DHT22;548;48.778;9.252;2022-10-12T10:17:48;18.30;99.90
1123;DHT22;548;48.778;9.252;2022-10-12T10:20:27;18.50;99.90
1123;DHT22;548;48.778;9.252;2022-10-12T10:22:55;18.80;99.90
1123;DHT22;548;48.778;9.252;2022-10-12T10:25:23;19.00;99.90
1123;DHT22;548;48.778;9.252;2022-10-12T10:28:08;19.20;99.90
1123;DHT22;548;48.778;9.252;2022-10-12T10:30:35;19.30;99.90
1123;DHT22;548;48.778;9.252;2022-10-12T10:33:26;19.20;99.90
1123;DHT22;548;48.778;9.252;2022-10-12T10:36:18;19.30;99.90
1123;DHT22;548;48.778;9.252;2022-10-12T10:38:54;19.30;99.90
1123;DHT22;548;48.778;9.252;2022-10-12T10:41:25;19.50;99.90
1123;DHT22;548;48.778;9.252;2022-10-12T10:43:52;19.70;99.90
1123;DHT22;548;48.778;9.252;2022-10-12T10:46:23;19.70;99.90
1123;DHT22;548;48.778;9.252;2022-10-12T10:48:52;20.10;99.90
1123;DHT22;548;48.778;9.252;2022-10-12T10:51:38;20.60;99.90
1123;DHT22;548;48.778;9.252;2022-10-12T10:54:13;20.50;99.90
1123;DHT22;548;48.778;9.252;2022-10-12T10:56:41;20.30;99.90
1123;DHT22;548;48.778;9.252;2022-10-12T10:59:15;20.40;99.90
1123;DHT22;548;48.778;9.252;2022-10-12T11:01:50;20.40;99.90
1123;DHT22;548;48.778;9.252;2022-10-12T11:04:20;20.20;99.90
1123;DHT22;548;48.778;9.252;2022-10-12T11:06:53;20.70;99.90
1123;DHT22;548;48.778;9.252;2022-10-12T11:09:24;21.20;99.90
1123;DHT22;548;48.778;9.252;2022-10-12T11:11:56;21.30;99.90
1123;DHT22;548;48.778;9.252;2022-10-12T11:14:30;21.30;99.90
1123;DHT22;548;48.778;9.252;2022-10-12T11:17:03;21.30;99.90
1123;DHT22;548;48.778;9.252;2022-10-12T11:19:35;21.30;99.90
1123;DHT22;548;48.778;9.252;2022-10-12T11:22:11;21.30;99.90
1123;DHT22;548;48.778;9.252;2022-10-12T11:24:42;21.10;99.90
1123;DHT22;548;48.778;9.252;2022-10-12T11:27:14;21.10;99.90
1123;DHT22;548;48.778;9.252;2022-10-12T11:29:42;21.30;99.90
1123;DHT22;548;48.778;9.252;2022-10-12T11:32:17;21.00;99.90
1123;DHT22;548;48.778;9.252;2022-10-12T11:34:50;20.50;99.90
1123;DHT22;548;48.778;9.252;2022-10-12T11:37:26;20.10;99.90
1123;DHT22;548;48.778;9.252;2022-10-12T11:39:55;20.00;99.90
1123;DHT22;548;48.778;9.252;2022-10-12T11:42:28;20.00;99.90
1123;DHT22;548;48.778;9.252;2022-10-12T11:44:56;19.60;99.90
1123;DHT22;548;48.778;9.252;2022-10-12T11:47:31;19.60;99.90
1123;DHT22;548;48.778;9.252;2022-10-12T11:50:00;19.50;99.90
1123;DHT22;548;48.778;9.252;2022-10-12T11:52:35;19.70;99.90
1123;DHT22;548;48.778;9.252;2022-10-12T11:55:20;19.90;99.90
1123;DHT22;548;48.778;9.252;2022-10-12T11:57:50;19.60;99.90
1123;DHT22;548;48.778;9.252;2022-10-12T12:00:21;19.50;99.90
1123;DHT22;548;48.778;9.252;2022-10-12T12:02:52;19.50;99.90
1123;DHT22;548;48.778;9.252;2022-10-12T12:05:21;19.70;99.90
1123;DHT22;548;48.778;9.252;2022-10-12T12:07:49;19.90;99.90
1123;DHT22;548;48.778;9.252;2022-10-12T12:13:27;20.60;99.90
1123;DHT22;548;48.778;9.252;2022-10-12T12:16:21;20.10;99.90
1123;DHT22;548;48.778;9.252;2022-10-12T12:19:35;19.90;99.90
1123;DHT22;548;48.778;9.252;2022-10-12T12:22:21;19.80;99.90
1123;DHT22;548;48.778;9.252;2022-10-12T12:24:56;19.70;99.90
1123;DHT22;548;48.778;9.252;2022-10-12T12:27:30;19.40;99.90
1123;DHT22;548;48.778;9.252;2022-10-12T12:29:58;19.50;99.90
1123;DHT22;548;48.778;9.252;2022-10-12T12:32:40;20.00;99.90
1123;DHT22;548;48.778;9.252;2022-10-12T12:35:18;20.20;99.90
1123;DHT22;548;48.778;9.252;2022-10-12T12:37:45;20.30;99.90
1123;DHT22;548;48.778;9.252;2022-10-12T12:40:20;20.60;99.90
1123;DHT22;548;48.778;9.252;2022-10-12T12:42:48;20.90;99.90
1123;DHT22;548;48.778;9.252;2022-10-12T12:45:39;21.00;99.90
1123;DHT22;548;48.778;9.252;2022-10-12T12:48:08;21.30;99.90
1123;DHT22;548;48.778;9.252;2022-10-12T12:50:36;21.30;99.90
1123;DHT22;548;48.778;9.252;2022-10-12T12:53:06;20.70;99.90
1123;DHT22;548;48.778;9.252;2022-10-12T12:56:10;20.40;99.90
1123;DHT22;548;48.778;9.252;2022-10-12T12:59:04;20.20;99.90
1123;DHT22;548;48.778;9.252;2022-10-12T13:01:51;19.90;99.90
1123;DHT22;548;48.778;9.252;2022-10-12T13:04:37;20.00;99.90
1123;DHT22;548;48.778;9.252;2022-10-12T13:10:24;21.40;99.90
1123;DHT22;548;48.778;9.252;2022-10-12T13:13:16;21.70;99.90
1123;DHT22;548;48.778;9.252;2022-10-12T13:15:58;21.30;99.90
1123;DHT22;548;48.778;9.252;2022-10-12T13:18:43;20.90;99.90
1123;DHT22;548;48.778;9.252;2022-10-12T13:21:16;20.80;99.90
1123;DHT22;548;48.778;9.252;2022-10-12T13:23:46;21.20;99.90
1123;DHT22;548;48.778;9.252;2022-10-12T13:26:17;21.50;99.90
1123;DHT22;548;48.778;9.252;2022-10-12T13:28:48;21.10;99.90
1123;DHT22;548;48.778;9.252;2022-10-12T13:31:19;20.70;99.90
1123;DHT22;548;48.778;9.252;2022-10-12T13:33:58;20.70;99.90
1123;DHT22;548;48.778;9.252;2022-10-12T13:36:28;21.00;99.90
1123;DHT22;548;48.778;9.252;2022-10-12T13:38:56;21.30;99.90
1123;DHT22;548;48.778;9.252;2022-10-12T13:41:25;21.10;99.90
1123;DHT22;548;48.778;9.252;2022-10-12T13:43:57;20.70;99.90
1123;DHT22;548;48.778;9.252;2022-10-12T13:46:36;20.50;99.90
1123;DHT22;548;48.778;9.252;2022-10-12T13:49:12;20.10;99.90
1123;DHT22;548;48.778;9.252;2022-10-12T13:51:40;20.10;99.90
1123;DHT22;548;48.778;9.252;2022-10-12T13:54:14;19.60;99.90
1123;DHT22;548;48.778;9.252;2022-10-12T13:56:41;19.40;99.90
1123;DHT22;548;48.778;9.252;2022-10-12T13:59:14;19.50;99.90
1123;DHT22;548;48.778;9.252;2022-10-12T14:01:48;19.50;99.90
1123;DHT22;548;48.778;9.252;2022-10-12T14:04:15;19.40;99.90
1123;DHT22;548;48.778;9.252;2022-10-12T14:06:46;19.20;99.90
1123;DHT22;548;48.778;9.252;2022-10-12T14:09:16;19.40;99.90
1123;DHT22;548;48.778;9.252;2022-10-12T14:11:44;19.40;99.90
1123;DHT22;548;48.778;9.252;2022-10-12T14:14:18;19.40;99.90
1123;DHT22;548;48.778;9.252;2022-10-12T14:16:45;19.30;99.90
1123;DHT22;548;48.778;9.252;2022-10-12T14:19:19;19.40;99.90
1123;DHT22;548;48.778;9.252;2022-10-12T14:21:47;19.50;99.90
1123;DHT22;548;48.778;9.252;2022-10-12T14:24:16;19.40;99.90
1123;DHT22;548;48.778;9.252;2022-10-12T14:26:50;19.30;99.90
1123;DHT22;548;48.778;9.252;2022-10-12T14:29:33;19.20;99.90
1123;DHT22;548;48.778;9.252;2022-10-12T14:32:01;19.20;99.90
1123;DHT22;548;48.778;9.252;2022-10-12T14:34:39;19.00;99.90
1123;DHT22;548;48.778;9.252;2022-10-12T14:37:21;18.90;99.90
1123;DHT22;548;48.778;9.252;2022-10-12T14:39:50;18.70;99.90
1123;DHT22;548;48.778;9.252;2022-10-12T14:42:27;18.70;99.90
1123;DHT22;548;48.778;9.252;2022-10-12T14:44:56;18.70;99.90
1123;DHT22;548;48.778;9.252;2022-10-12T14:47:25;18.70;99.90
1123;DHT22;548;48.778;9.252;2022-10-12T14:49:55;18.70;99.90
1123;DHT22;548;48.778;9.252;2022-10-12T14:52:24;18.80;99.90
1123;DHT22;548;48.778;9.252;2022-10-12T14:54:52;18.80;99.90
1123;DHT22;548;48.778;9.252;2022-10-12T14:57:21;18.70;99.90
1123;DHT22;548;48.778;9.252;2022-10-12T14:59:48;18.70;99.90
1123;DHT22;548;48.778;9.252;2022-10-12T15:02:19;18.60;99.90
1123;DHT22;548;48.778;9.252;2022-10-12T15:04:48;18.60;99.90
1123;DHT22;548;48.778;9.252;2022-10-12T15:07:16;18.60;99.90
1123;DHT22;548;48.778;9.252;2022-10-12T15:09:43;18.60;99.90
1123;DHT22;548;48.778;9.252;2022-10-12T15:12:12;18.50;99.90
1123;DHT22;548;48.778;9.252;2022-10-12T15:14:39;18.50;99.90
1123;DHT22;548;48.778;9.252;2022-10-12T15:17:09;18.60;99.90
1123;DHT22;548;48.778;9.252;2022-10-12T15:19:37;18.50;99.90
1123;DHT22;548;48.778;9.252;2022-10-12T15:22:04;18.50;99.90
1123;DHT22;548;48.778;9.252;2022-10-12T15:24:31;18.40;99.90
1123;DHT22;548;48.778;9.252;2022-10-12T15:26:58;18.30;99.90
1123;DHT22;548;48.778;9.252;2022-10-12T15:29:24;18.30;99.90
1123;DHT22;548;48.778;9.252;2022-10-12T15:31:51;18.30;99.90
1123;DHT22;548;48.778;9.252;2022-10-12T15:34:18;18.30;99.90
1123;DHT22;548;48.778;9.252;2022-10-12T15:36:46;18.10;99.90
1123;DHT22;548;48.778;9.252;2022-10-12T15:39:14;18.10;99.90
1123;DHT22;548;48.778;9.252;2022-10-12T15:41:40;18.00;99.90
1123;DHT22;548;48.778;9.252;2022-10-12T15:44:09;18.00;99.90
1123;DHT22;548;48.778;9.252;2022-10-12T15:46:36;17.90;99.90
1123;DHT22;548;48.778;9.252;2022-10-12T15:49:03;17.80;99.90
1123;DHT22;548;48.778;9.252;2022-10-12T15:51:31;17.80;99.90
1123;DHT22;548;48.778;9.252;2022-10-12T15:54:01;17.70;99.90
1123;DHT22;548;48.778;9.252;2022-10-12T15:56:27;17.70;99.90
1123;DHT22;548;48.778;9.252;2022-10-12T15:58:54;17.50;99.90
1123;DHT22;548;48.778;9.252;2022-10-12T16:01:21;17.50;99.90
1123;DHT22;548;48.778;9.252;2022-10-12T16:03:48;17.40;99.90
1123;DHT22;548;48.778;9.252;2022-10-12T16:06:15;17.30;99.90
1123;DHT22;548;48.778;9.252;2022-10-12T16:08:42;17.30;99.90
1123;DHT22;548;48.778;9.252;2022-10-12T16:11:13;17.10;99.90
1123;DHT22;548;48.778;9.252;2022-10-12T16:13:41;17.00;99.90
1123;DHT22;548;48.778;9.252;2022-10-12T16:16:09;16.90;99.90
1123;DHT22;548;48.778;9.252;2022-10-12T16:18:36;16.80;99.90
1123;DHT22;548;48.778;9.252;2022-10-12T16:21:03;16.70;99.90
1123;DHT22;548;48.778;9.252;2022-10-12T16:23:32;16.70;99.90
1123;DHT22;548;48.778;9.252;2022-10-12T16:26:03;16.60;99.90
1123;DHT22;548;48.778;9.252;2022-10-12T16:28:32;16.50;99.90
1123;DHT22;548;48.778;9.252;2022-10-12T16:30:59;16.40;99.90
1123;DHT22;548;48.778;9.252;2022-10-12T16:33:26;16.20;99.90
1123;DHT22;548;48.778;9.252;2022-10-12T16:35:53;16.10;99.90
1123;DHT22;548;48.778;9.252;2022-10-12T16:38:19;16.00;99.90
1123;DHT22;548;48.778;9.252;2022-10-12T16:40:46;15.90;99.90
1123;DHT22;548;48.778;9.252;2022-10-12T16:43:14;15.90;99.90
1123;DHT22;548;48.778;9.252;2022-10-12T16:45:42;15.80;99.90
1123;DHT22;548;48.778;9.252;2022-10-12T16:48:09;15.70;99.90
1123;DHT22;548;48.778;9.252;2022-10-12T16:50:37;15.70;99.90
1123;DHT22;548;48.778;9.252;2022-10-12T16:53:05;15.60;99.90
1123;DHT22;548;48.778;9.252;2022-10-12T16:55:35;15.40;99.90
1123;DHT22;548;48.778;9.252;2022-10-12T16:58:02;15.40;99.90
1123;DHT22;548;48.778;9.252;2022-10-12T17:00:29;15.30;99.90
1123;DHT22;548;48.778;9.252;2022-10-12T17:02:57;15.30;99.90
1123;DHT22;548;48.778;9.252;2022-10-12T17:05:24;15.30;99.90
1123;DHT22;548;48.778;9.252;2022-10-12T17:07:51;15.30;99.90
1123;DHT22;548;48.778;9.252;2022-10-12T17:10:17;15.20;99.90
1123;DHT22;548;48.778;9.252;2022-10-12T17:12:44;15.10;99.90
1123;DHT22;548;48.778;9.252;2022-10-12T17:15:11;15.10;99.90
1123;DHT22;548;48.778;9.252;2022-10-12T17:17:38;15.00;99.90
1123;DHT22;548;48.778;9.252;2022-10-12T17:20:06;14.90;99.90
1123;DHT22;548;48.778;9.252;2022-10-12T17:22:33;14.90;99.90
1123;DHT22;548;48.778;9.252;2022-10-12T17:25:00;14.80;99.90
1123;DHT22;548;48.778;9.252;2022-10-12T17:27:27;14.80;99.90
1123;DHT22;548;48.778;9.252;2022-10-12T17:29:53;14.60;99.90
1123;DHT22;548;48.778;9.252;2022-10-12T17:32:20;14.50;99.90
1123;DHT22;548;48.778;9.252;2022-10-12T17:34:47;14.40;99.90
1123;DHT22;548;48.778;9.252;2022-10-12T17:37:15;14.40;99.90
1123;DHT22;548;48.778;9.252;2022-10-12T17:39:44;14.40;99.90
1123;DHT22;548;48.778;9.252;2022-10-12T17:42:12;14.40;99.90
1123;DHT22;548;48.778;9.252;2022-10-12T17:44:39;14.40;99.90
1123;DHT22;548;48.778;9.252;2022-10-12T17:47:06;14.50;99.90
1123;DHT22;548;48.778;9.252;2022-10-12T17:49:32;14.40;99.90
1123;DHT22;548;48.778;9.252;2022-10-12T17:51:59;14.40;99.90
1123;DHT22;548;48.778;9.252;2022-10-12T17:54:27;14.30;99.90
1123;DHT22;548;48.778;9.252;2022-10-12T17:56:54;14.30;99.90
1123;DHT22;548;48.778;9.252;2022-10-12T17:59:21;14.20;99.90
1123;DHT22;548;48.778;9.252;2022-10-12T18:01:49;14.20;99.90
1123;DHT22;548;48.778;9.252;2022-10-12T18:04:16;14.20;99.90
1123;DHT22;548;48.778;9.252;2022-10-12T18:06:43;14.10;99.90
1123;DHT22;548;48.778;9.252;2022-10-12T18:09:11;14.10;99.90
1123;DHT22;548;48.778;9.252;2022-10-12T18:11:39;14.00;99.90
1123;DHT22;548;48.778;9.252;2022-10-12T18:14:09;14.00;99.90
1123;DHT22;548;48.778;9.252;2022-10-12T18:16:37;13.90;99.90
1123;DHT22;548;48.778;9.252;2022-10-12T18:19:05;13.80;99.90
1123;DHT22;548;48.778;9.252;2022-10-12T18:21:34;13.80;99.90
1123;DHT22;548;48.778;9.252;2022-10-12T18:24:03;13.80;99.90
1123;DHT22;548;48.778;9.252;2022-10-12T18:26:30;13.80;99.90
1123;DHT22;548;48.778;9.252;2022-10-12T18:29:00;13.70;99.90
1123;DHT22;548;48.778;9.252;2022-10-12T18:31:28;13.70;99.90
1123;DHT22;548;48.778;9.252;2022-10-12T18:33:56;13.70;99.90
1123;DHT22;548;48.778;9.252;2022-10-12T18:36:24;13.70;99.90
1123;DHT22;548;48.778;9.252;2022-10-12T18:38:50;13.70;99.90
1123;DHT22;548;48.778;9.252;2022-10-12T18:41:19;13.70;99.90
1123;DHT22;548;48.778;9.252;2022-10-12T18:43:47;13.70;99.90
1123;DHT22;548;48.778;9.252;2022-10-12T18:46:15;13.60;99.90
1123;DHT22;548;48.778;9.252;2022-10-12T18:48:43;13.60;99.90
1123;DHT22;548;48.778;9.252;2022-10-12T18:51:15;13.50;99.90
1123;DHT22;548;48.778;9.252;2022-10-12T18:53:43;13.50;99.90
1123;DHT22;548;48.778;9.252;2022-10-12T18:56:10;13.30;99.90
1123;DHT22;548;48.778;9.252;2022-10-12T18:58:37;13.20;99.90
1123;DHT22;548;48.778;9.252;2022-10-12T19:01:07;13.20;99.90
1123;DHT22;548;48.778;9.252;2022-10-12T19:03:36;13.20;99.90
1123;DHT22;548;48.778;9.252;2022-10-12T19:06:06;13.20;99.90
1123;DHT22;548;48.778;9.252;2022-10-12T19:08:33;13.10;99.90
1123;DHT22;548;48.778;9.252;2022-10-12T19:11:03;13.10;99.90
1123;DHT22;548;48.778;9.252;2022-10-12T19:13:30;13.10;99.90
1123;DHT22;548;48.778;9.252;2022-10-12T19:16:02;13.10;99.90
1123;DHT22;548;48.778;9.252;2022-10-12T19:18:29;13.10;99.90
1123;DHT22;548;48.778;9.252;2022-10-12T19:21:01;13.10;99.90
1123;DHT22;548;48.778;9.252;2022-10-12T19:23:28;13.00;99.90
1123;DHT22;548;48.778;9.252;2022-10-12T19:25:54;13.10;99.90
1123;DHT22;548;48.778;9.252;2022-10-12T19:28:21;13.10;99.90
1123;DHT22;548;48.778;9.252;2022-10-12T19:30:48;13.00;99.90
1123;DHT22;548;48.778;9.252;2022-10-12T19:33:15;13.00;99.90
1123;DHT22;548;48.778;9.252;2022-10-12T19:35:41;13.00;99.90
1123;DHT22;548;48.778;9.252;2022-10-12T19:38:09;13.00;99.90
1123;DHT22;548;48.778;9.252;2022-10-12T19:40:36;13.00;99.90
1123;DHT22;548;48.778;9.252;2022-10-12T19:43:03;13.00;99.90
1123;DHT22;548;48.778;9.252;2022-10-12T19:45:36;12.90;99.90
1123;DHT22;548;48.778;9.252;2022-10-12T19:48:03;12.90;99.90